createdAt,value
2023-04-02T00:01:01.967Z,0.90
2023-04-02T00:03:08.500Z,0.60
2023-04-02T00:05:31.355Z,0.50
2023-04-02T00:07:33.551Z,0.90
2023-04-02T00:09:38.000Z,0.80
2023-04-02T00:11:45.503Z,0.80
2023-04-02T00:13:47.118Z,0.70
2023-04-02T00:15:51.883Z,0.75
2023-04-02T00:17:53.984Z,0.70
2023-04-02T00:20:04.139Z,0.70
2023-04-02T00:22:20.293Z,0.60
2023-04-02T00:24:22.546Z,0.82
2023-04-02T00:26:28.693Z,0.57
2023-04-02T00:28:30.657Z,0.80
2023-04-02T00:30:32.311Z,1.05
2023-04-02T00:32:36.341Z,0.80
2023-04-02T00:34:38.331Z,0.80
2023-04-02T00:36:41.818Z,0.60
2023-04-02T00:38:46.783Z,0.65
2023-04-02T00:40:51.088Z,0.60
2023-04-02T00:42:55.739Z,0.80
2023-04-02T00:44:58.796Z,0.55
2023-04-02T00:47:09.127Z,0.90
2023-04-02T00:49:29.766Z,0.90
2023-04-02T00:51:36.912Z,0.50
2023-04-02T00:53:40.589Z,0.50
2023-04-02T00:55:43.744Z,0.65
2023-04-02T00:57:46.440Z,0.60
2023-04-02T01:00:12.014Z,0.70
2023-04-02T01:02:17.457Z,0.70
2023-04-02T01:04:34.275Z,0.70
2023-04-02T01:06:38.546Z,0.70
2023-04-02T01:08:43.133Z,0.50
2023-04-02T01:10:56.985Z,0.50
2023-04-02T01:13:27.715Z,0.50
2023-04-02T01:15:40.587Z,0.60
2023-04-02T01:18:00.869Z,0.63
2023-04-02T01:20:31.834Z,0.80
2023-04-02T01:23:17.341Z,0.63
2023-04-02T01:25:49.626Z,0.60
2023-04-02T01:28:00.633Z,0.40
2023-04-02T01:30:05.171Z,0.80
2023-04-02T01:32:12.921Z,0.47
2023-04-02T01:34:18.255Z,0.50
2023-04-02T01:37:00.850Z,0.60
2023-04-02T01:39:35.062Z,0.68
2023-04-02T01:41:58.119Z,0.57
2023-04-02T01:44:14.271Z,0.60
2023-04-02T01:46:31.932Z,0.45
2023-04-02T01:48:33.659Z,0.50
2023-04-02T01:50:38.584Z,0.43
2023-04-02T01:52:43.118Z,0.43
2023-04-02T01:54:47.204Z,0.52
2023-04-02T01:56:49.837Z,0.60
2023-04-02T01:58:51.604Z,0.82
2023-04-02T02:01:03.800Z,0.60
2023-04-02T02:03:06.332Z,0.55
2023-04-02T02:05:21.097Z,0.55
2023-04-02T02:07:24.084Z,0.57
2023-04-02T02:09:29.955Z,0.40
2023-04-02T02:11:33.366Z,0.40
2023-04-02T02:13:35.074Z,0.70
2023-04-02T02:15:37.074Z,0.60
2023-04-02T02:17:39.054Z,0.50
2023-04-02T02:19:47.203Z,0.57
2023-04-02T02:21:54.804Z,0.50
2023-04-02T02:23:57.377Z,0.50
2023-04-02T02:25:59.110Z,0.50
2023-04-02T02:28:05.845Z,0.70
2023-04-02T02:30:16.676Z,0.50
2023-04-02T02:32:22.253Z,0.50
2023-04-02T02:34:32.801Z,0.50
2023-04-02T02:36:58.682Z,0.60
2023-04-02T02:39:38.511Z,0.65
2023-04-02T02:41:45.840Z,0.50
2023-04-02T02:44:17.103Z,0.50
2023-04-02T02:46:22.185Z,0.77
2023-04-02T02:48:33.203Z,0.65
2023-04-02T02:50:35.358Z,0.60
2023-04-02T02:52:39.162Z,0.55
2023-04-02T02:54:56.591Z,0.55
2023-04-02T02:57:03.399Z,0.60
2023-04-02T02:59:08.431Z,0.60
2023-04-02T03:01:10.502Z,0.50
2023-04-02T03:03:18.909Z,0.40
2023-04-02T03:05:26.203Z,0.60
2023-04-02T03:07:30.265Z,0.50
2023-04-02T03:10:12.543Z,0.47
2023-04-02T03:12:32.778Z,0.68
2023-04-02T03:14:46.421Z,0.68
2023-04-02T03:16:52.719Z,0.50
2023-04-02T03:19:16.461Z,0.50
2023-04-02T03:21:48.696Z,0.40
2023-04-02T03:24:06.074Z,0.50
2023-04-02T03:26:46.510Z,0.77
2023-04-02T03:29:03.750Z,0.63
2023-04-02T03:31:27.617Z,0.32
2023-04-02T03:33:39.457Z,0.77
2023-04-02T03:35:54.460Z,0.60
2023-04-02T03:38:03.494Z,0.40
2023-04-02T03:40:09.672Z,0.60
2023-04-02T03:42:17.742Z,0.60
2023-04-02T03:44:35.147Z,0.40
2023-04-02T03:46:51.851Z,0.52
2023-04-02T03:48:58.364Z,0.60
2023-04-02T03:51:07.086Z,0.50
2023-04-02T03:53:09.215Z,0.63
2023-04-02T03:55:21.933Z,0.65
2023-04-02T03:57:43.472Z,0.50
2023-04-02T03:59:58.154Z,0.50
2023-04-02T04:02:38.772Z,0.45
2023-04-02T04:04:42.878Z,0.45
2023-04-02T04:06:49.273Z,0.52
2023-04-02T04:08:55.826Z,0.40
2023-04-02T04:11:01.788Z,0.70
2023-04-02T04:13:12.361Z,0.70
2023-04-02T04:15:42.377Z,0.70
2023-04-02T04:18:21.563Z,0.90
2023-04-02T04:20:45.925Z,1.13
2023-04-02T04:22:49.874Z,0.70
2023-04-02T04:24:51.603Z,0.70
2023-04-02T04:27:23.706Z,0.80
2023-04-02T04:29:46.567Z,1.08
2023-04-02T04:31:50.707Z,0.70
2023-04-02T04:34:03.040Z,0.60
2023-04-02T04:36:06.145Z,0.63
2023-04-02T04:38:18.602Z,0.95
2023-04-02T04:40:35.753Z,0.82
2023-04-02T04:42:40.606Z,0.60
2023-04-02T04:44:55.303Z,1.00
2023-04-02T04:47:10.260Z,0.68
2023-04-02T04:49:19.626Z,0.60
2023-04-02T04:51:37.675Z,0.80
2023-04-02T04:53:48.061Z,0.80
2023-04-02T04:55:53.426Z,0.98
2023-04-02T04:58:00.630Z,1.00
2023-04-02T05:00:13.733Z,1.10
2023-04-02T05:02:24.679Z,0.60
2023-04-02T05:04:31.508Z,0.80
2023-04-02T05:06:39.373Z,0.68
2023-04-02T05:08:47.142Z,0.70
2023-04-02T05:11:07.774Z,0.70
2023-04-02T05:13:18.762Z,0.80
2023-04-02T05:15:30.344Z,0.70
2023-04-02T05:17:43.861Z,0.50
2023-04-02T05:20:10.823Z,0.70
2023-04-02T05:22:31.157Z,0.75
2023-04-02T05:24:50.756Z,0.63
2023-04-02T05:26:56.955Z,0.80
2023-04-02T05:29:17.009Z,0.73
2023-04-02T05:31:26.027Z,1.02
2023-04-02T05:33:30.732Z,0.77
2023-04-02T05:35:35.376Z,1.00
2023-04-02T05:37:39.482Z,0.90
2023-04-02T05:39:45.595Z,0.75
2023-04-02T05:41:47.604Z,1.20
2023-04-02T05:43:56.481Z,0.80
2023-04-02T05:46:02.842Z,0.70
2023-04-02T05:48:18.838Z,0.70
2023-04-02T05:50:37.710Z,1.05
2023-04-02T05:53:07.724Z,0.73
2023-04-02T05:55:12.400Z,0.57
2023-04-02T05:57:23.180Z,0.82
2023-04-02T05:59:37.883Z,0.70
2023-04-02T06:01:51.457Z,1.10
2023-04-02T06:04:07.082Z,1.00
2023-04-02T06:06:19.307Z,1.00
2023-04-02T06:08:35.187Z,0.98
2023-04-02T06:10:51.372Z,1.10
2023-04-02T06:13:03.579Z,1.08
2023-04-02T06:15:06.772Z,0.70
2023-04-02T06:17:14.295Z,0.68
2023-04-02T06:19:25.624Z,0.80
2023-04-02T06:21:27.306Z,0.73
2023-04-02T06:23:54.824Z,0.98
2023-04-02T06:26:14.992Z,0.80
2023-04-02T06:28:41.475Z,0.80
2023-04-02T06:30:44.073Z,0.60
2023-04-02T06:32:46.060Z,0.70
2023-04-02T06:34:47.759Z,1.10
2023-04-02T06:36:51.336Z,0.77
2023-04-02T06:38:58.130Z,0.77
2023-04-02T06:41:05.061Z,0.55
2023-04-02T06:43:17.215Z,0.90
2023-04-02T06:45:39.901Z,0.50
2023-04-02T06:47:44.262Z,0.80
2023-04-02T06:49:58.294Z,0.80
2023-04-02T06:52:03.599Z,0.70
2023-04-02T06:54:05.981Z,0.70
2023-04-02T06:56:37.692Z,0.70
2023-04-02T06:58:39.339Z,0.73
2023-04-02T07:00:42.146Z,0.70
2023-04-02T07:02:44.049Z,0.70
2023-04-02T07:04:46.036Z,0.85
2023-04-02T07:06:48.220Z,1.33
2023-04-02T07:08:49.914Z,0.90
2023-04-02T07:10:52.160Z,0.60
2023-04-02T07:12:53.764Z,1.05
2023-04-02T07:14:55.436Z,0.80
2023-04-02T07:16:57.105Z,0.90
2023-04-02T07:18:59.671Z,0.90
2023-04-02T07:21:01.322Z,0.82
2023-04-02T07:23:03.695Z,1.30
2023-04-02T07:25:05.699Z,0.93
2023-04-02T07:27:07.289Z,0.63
2023-04-02T07:29:13.411Z,0.80
2023-04-02T07:31:20.453Z,0.80
2023-04-02T07:33:28.381Z,1.05
2023-04-02T07:35:29.986Z,0.90
2023-04-02T07:37:32.027Z,0.90
2023-04-02T07:39:36.200Z,0.70
2023-04-02T07:41:57.270Z,1.10
2023-04-02T07:43:58.926Z,1.35
2023-04-02T07:46:00.790Z,1.48
2023-04-02T07:48:11.340Z,1.67
2023-04-02T07:50:13.428Z,1.40
2023-04-02T07:52:15.629Z,1.83
2023-04-02T07:54:17.250Z,1.88
2023-04-02T07:56:20.186Z,2.03
2023-04-02T07:58:22.061Z,1.98
2023-04-02T08:00:24.850Z,1.48
2023-04-02T08:02:26.485Z,1.50
2023-04-02T08:04:28.186Z,1.73
2023-04-02T08:06:30.472Z,1.08
2023-04-02T08:08:32.132Z,1.63
2023-04-02T08:10:33.745Z,2.17
2023-04-02T08:12:35.997Z,1.52
2023-04-02T08:14:37.647Z,1.70
2023-04-02T08:16:50.906Z,1.65
2023-04-02T08:18:52.676Z,1.70
2023-04-02T08:20:54.565Z,1.60
2023-04-02T08:22:56.345Z,1.83
2023-04-02T08:24:58.154Z,1.40
2023-04-02T08:26:59.821Z,1.85
2023-04-02T08:29:01.608Z,1.48
2023-04-02T08:31:04.722Z,1.55
2023-04-02T08:33:06.773Z,1.52
2023-04-02T08:35:14.580Z,1.30
2023-04-02T08:37:16.282Z,1.52
2023-04-02T08:39:17.934Z,1.60
2023-04-02T08:41:27.438Z,1.27
2023-04-02T08:43:54.004Z,1.10
2023-04-02T08:46:01.766Z,1.27
2023-04-02T08:48:05.435Z,1.60
2023-04-02T08:50:28.694Z,0.95
2023-04-02T08:52:37.243Z,1.20
2023-04-02T08:54:38.896Z,1.35
2023-04-02T08:56:47.027Z,1.33
2023-04-02T08:58:51.925Z,1.25
2023-04-02T09:00:57.713Z,1.05
2023-04-02T09:03:06.710Z,1.40
2023-04-02T09:05:22.016Z,0.88
2023-04-02T09:07:24.069Z,0.95
2023-04-02T09:09:27.165Z,1.20
2023-04-02T09:11:38.143Z,0.80
2023-04-02T09:13:46.645Z,1.52
2023-04-02T09:15:50.092Z,1.00
2023-04-02T09:18:13.190Z,1.02
2023-04-02T09:20:18.835Z,1.48
2023-04-02T09:22:24.253Z,1.02
2023-04-02T09:24:26.083Z,1.00
2023-04-02T09:26:30.740Z,1.15
2023-04-02T09:28:32.400Z,0.95
2023-04-02T09:30:57.329Z,0.80
2023-04-02T09:33:07.524Z,1.05
2023-04-02T09:35:25.360Z,1.10
2023-04-02T09:37:39.905Z,1.10
2023-04-02T09:39:41.542Z,1.20
2023-04-02T09:41:44.916Z,1.20
2023-04-02T09:43:48.009Z,1.05
2023-04-02T09:46:04.875Z,1.23
2023-04-02T09:48:40.765Z,0.90
2023-04-02T09:50:42.437Z,0.90
2023-04-02T09:52:44.111Z,1.00
2023-04-02T09:54:47.591Z,0.98
2023-04-02T09:57:03.944Z,1.00
2023-04-02T09:59:15.037Z,0.70
2023-04-02T10:01:28.134Z,0.75
2023-04-02T10:03:35.764Z,1.00
2023-04-02T10:05:41.117Z,0.90
2023-04-02T10:07:45.917Z,0.80
2023-04-02T10:10:01.643Z,0.98
2023-04-02T10:12:06.967Z,0.80
2023-04-02T10:14:20.483Z,0.90
2023-04-02T10:16:36.863Z,0.70
2023-04-02T10:18:44.835Z,0.60
2023-04-02T10:20:51.550Z,0.93
2023-04-02T10:22:53.430Z,1.05
2023-04-02T10:24:55.324Z,0.82
2023-04-02T10:27:17.976Z,0.90
2023-04-02T10:29:34.777Z,1.00
2023-04-02T10:32:01.501Z,0.73
2023-04-02T10:34:12.477Z,0.77
2023-04-02T10:36:24.398Z,0.85
2023-04-02T10:38:28.823Z,0.60
2023-04-02T10:40:42.498Z,0.60
2023-04-02T10:43:34.277Z,0.80
2023-04-02T10:45:59.162Z,0.70
2023-04-02T10:48:25.388Z,0.90
2023-04-02T10:50:48.194Z,0.82
2023-04-02T10:53:02.347Z,0.60
2023-04-02T10:55:18.000Z,0.70
2023-04-02T10:57:28.852Z,0.52
2023-04-02T10:59:35.463Z,0.80
2023-04-02T11:01:40.905Z,0.90
2023-04-02T11:03:57.824Z,0.73
2023-04-02T11:06:05.826Z,0.98
2023-04-02T11:08:18.151Z,0.85
2023-04-02T11:10:20.954Z,0.70
2023-04-02T11:12:41.632Z,0.95
2023-04-02T11:14:43.796Z,0.70
2023-04-02T11:16:48.155Z,0.80
2023-04-02T11:19:09.040Z,0.80
2023-04-02T11:21:57.338Z,0.70
2023-04-02T11:24:03.698Z,0.90
2023-04-02T11:26:33.711Z,0.63
2023-04-02T11:28:35.433Z,0.90
2023-04-02T11:30:37.157Z,0.70
2023-04-02T11:32:51.957Z,0.60
2023-04-02T11:35:06.330Z,0.57
2023-04-02T11:37:29.024Z,0.85
2023-04-02T11:39:53.911Z,0.82
2023-04-02T11:42:03.145Z,0.73
2023-04-02T11:44:05.402Z,0.60
2023-04-02T11:46:15.953Z,0.80
2023-04-02T11:48:17.556Z,0.73
2023-04-02T11:50:31.205Z,0.90
2023-04-02T11:52:35.459Z,0.70
2023-04-02T11:54:38.540Z,0.80
2023-04-02T11:56:55.162Z,0.65
2023-04-02T11:59:09.103Z,1.00
2023-04-02T12:01:31.985Z,1.17
2023-04-02T12:04:05.969Z,0.90
2023-04-02T12:06:13.256Z,0.85
2023-04-02T12:08:24.300Z,0.75
2023-04-02T12:10:34.415Z,0.77
2023-04-02T12:12:38.885Z,0.95
2023-04-02T12:14:46.483Z,0.75
2023-04-02T12:16:48.292Z,0.88
2023-04-02T12:18:54.353Z,0.82
2023-04-02T12:20:57.670Z,0.80
2023-04-02T12:22:59.566Z,1.60
2023-04-02T12:25:06.363Z,1.20
2023-04-02T12:27:29.442Z,1.48
2023-04-02T12:29:31.203Z,1.45
2023-04-02T12:31:33.632Z,1.58
2023-04-02T12:33:37.993Z,2.15
2023-04-02T12:35:42.349Z,1.60
2023-04-02T12:37:44.019Z,1.67
2023-04-02T12:39:53.492Z,1.80
2023-04-02T12:41:55.943Z,2.03
2023-04-02T12:44:15.431Z,1.98
2023-04-02T12:46:17.228Z,1.50
2023-04-02T12:48:19.172Z,1.52
2023-04-02T12:50:22.231Z,1.92
2023-04-02T12:52:28.784Z,1.80
2023-04-02T12:54:36.386Z,2.25
2023-04-02T12:56:38.377Z,1.80
2023-04-02T12:58:42.897Z,1.50
2023-04-02T13:00:44.544Z,1.50
2023-04-02T13:02:49.124Z,1.20
2023-04-02T13:04:53.406Z,1.48
2023-04-02T13:06:56.158Z,1.52
2023-04-02T13:08:58.468Z,1.35
2023-04-02T13:11:04.866Z,1.60
2023-04-02T13:13:06.548Z,1.20
2023-04-02T13:15:34.372Z,1.58
2023-04-02T13:17:50.057Z,1.30
2023-04-02T13:19:51.745Z,1.40
2023-04-02T13:21:54.916Z,1.20
2023-04-02T13:23:56.542Z,1.35
2023-04-02T13:26:10.485Z,1.50
2023-04-02T13:28:12.133Z,1.77
2023-04-02T13:30:22.466Z,1.30
2023-04-02T13:32:25.977Z,1.42
2023-04-02T13:34:28.511Z,1.35
2023-04-02T13:36:30.645Z,1.10
2023-04-02T13:38:32.266Z,1.10
2023-04-02T13:40:35.415Z,1.40
2023-04-02T13:42:37.369Z,1.20
2023-04-02T13:44:39.058Z,1.05
2023-04-02T13:46:40.725Z,1.20
2023-04-02T13:48:42.355Z,1.10
2023-04-02T13:50:45.949Z,0.82
2023-04-02T13:52:50.525Z,0.90
2023-04-02T13:54:58.796Z,1.00
2023-04-02T13:57:01.226Z,0.95
2023-04-02T13:59:02.894Z,1.35
2023-04-02T14:01:04.703Z,0.80
2023-04-02T14:03:13.858Z,0.70
2023-04-02T14:05:22.436Z,1.00
2023-04-02T14:07:39.270Z,1.05
2023-04-02T14:09:59.383Z,0.80
2023-04-02T14:12:53.407Z,1.10
2023-04-02T14:15:22.781Z,0.90
2023-04-02T14:17:47.392Z,1.00
2023-04-02T14:20:09.024Z,1.00
2023-04-02T14:22:41.625Z,0.93
2023-04-02T14:25:06.050Z,0.98
2023-04-02T14:27:29.235Z,0.98
2023-04-02T14:29:46.157Z,1.20
2023-04-02T14:32:08.121Z,1.20
2023-04-02T14:34:12.459Z,1.38
2023-04-02T14:36:22.685Z,0.82
2023-04-02T14:38:40.433Z,0.95
2023-04-02T14:40:50.209Z,1.33
2023-04-02T14:43:07.164Z,1.30
2023-04-02T14:45:18.660Z,1.15
2023-04-02T14:47:46.400Z,1.38
2023-04-02T14:49:54.588Z,1.13
2023-04-02T14:52:04.686Z,1.35
2023-04-02T14:54:21.647Z,1.20
2023-04-02T14:56:24.189Z,1.08
2023-04-02T14:58:33.058Z,1.30
2023-04-02T15:00:43.121Z,1.30
2023-04-02T15:02:50.804Z,1.50
2023-04-02T15:05:17.691Z,0.88
2023-04-02T15:07:24.002Z,1.40
2023-04-02T15:09:33.869Z,1.20
2023-04-02T15:11:56.101Z,1.50
2023-04-02T15:14:05.096Z,1.10
2023-04-02T15:16:23.471Z,1.17
2023-04-02T15:18:25.453Z,1.55
2023-04-02T15:20:36.937Z,1.83
2023-04-02T15:22:47.643Z,1.55
2023-04-02T15:25:15.405Z,0.90
2023-04-02T15:27:46.777Z,1.20
2023-04-02T15:31:53.656Z,1.35
2023-04-02T15:34:17.196Z,1.58
2023-04-02T15:36:18.842Z,1.00
2023-04-02T15:38:26.407Z,1.65
2023-04-02T15:40:55.645Z,2.00
2023-04-02T15:43:19.014Z,2.00
2023-04-02T15:45:29.110Z,1.50
2023-04-02T15:47:36.883Z,1.83
2023-04-02T15:50:06.530Z,1.33
2023-04-02T15:52:38.191Z,1.67
2023-04-02T15:54:45.750Z,1.95
2023-04-02T15:57:17.389Z,1.45
2023-04-02T15:59:31.286Z,1.30
2023-04-02T16:02:01.085Z,1.70
2023-04-02T16:04:19.569Z,1.67
2023-04-02T16:06:44.538Z,1.65
2023-04-02T16:09:02.656Z,2.28
2023-04-02T16:11:10.504Z,1.67
2023-04-02T16:13:24.423Z,1.33
2023-04-02T16:15:36.717Z,1.77
2023-04-02T16:17:43.680Z,2.03
2023-04-02T16:19:51.104Z,1.73
2023-04-02T16:22:11.675Z,1.90
2023-04-02T16:24:13.418Z,1.83
2023-04-02T16:26:27.063Z,1.85
2023-04-02T16:28:42.586Z,1.73
2023-04-02T16:31:05.604Z,1.40
2023-04-02T16:33:21.136Z,1.65
2023-04-02T16:37:49.419Z,1.40
2023-04-02T16:40:32.792Z,1.30
2023-04-02T16:42:43.414Z,1.55
2023-04-02T16:45:25.570Z,1.50
2023-04-02T16:47:50.245Z,1.67
2023-04-02T16:50:08.313Z,1.58
2023-04-02T16:52:49.196Z,1.13
2023-04-02T16:55:10.710Z,1.70
2023-04-02T16:57:57.557Z,1.60
2023-04-02T17:00:02.140Z,1.60
2023-04-02T17:02:45.536Z,1.60
2023-04-02T17:05:05.614Z,1.83
2023-04-02T17:07:32.514Z,1.60
2023-04-02T17:09:42.506Z,1.60
2023-04-02T17:12:09.668Z,2.42
2023-04-02T17:14:21.959Z,1.92
2023-04-02T17:16:36.678Z,2.22
2023-04-02T17:18:42.437Z,1.80
2023-04-02T17:20:44.540Z,1.63
2023-04-02T17:22:47.850Z,1.83
2023-04-02T17:24:57.671Z,1.75
2023-04-02T17:27:17.296Z,1.63
2023-04-02T17:29:24.054Z,1.83
2023-04-02T17:31:30.590Z,1.83
2023-04-02T17:33:32.332Z,1.83
2023-04-02T17:36:04.357Z,2.20
2023-04-02T17:38:19.855Z,1.63
2023-04-02T17:40:29.152Z,2.15
2023-04-02T17:42:42.667Z,2.08
2023-04-02T17:44:50.115Z,2.10
2023-04-02T17:46:57.720Z,1.90
2023-04-02T17:49:16.564Z,1.90
2023-04-02T17:51:34.111Z,1.55
2023-04-02T17:53:52.166Z,1.63
2023-04-02T17:56:33.654Z,1.70
2023-04-02T18:01:05.899Z,2.33
2023-04-02T18:03:31.077Z,1.77
2023-04-02T18:05:38.693Z,2.15
2023-04-02T18:08:05.714Z,2.05
2023-04-02T18:10:13.443Z,2.20
2023-04-02T18:12:28.606Z,1.63
2023-04-02T18:14:59.736Z,2.20
2023-04-02T18:17:30.138Z,1.63
2023-04-02T18:19:49.892Z,2.35
2023-04-02T18:21:58.912Z,2.08
2023-04-02T18:24:32.909Z,2.22
2023-04-02T18:27:04.109Z,2.25
2023-04-02T18:29:26.841Z,1.70
2023-04-02T18:31:58.406Z,1.42
2023-04-02T18:34:15.755Z,2.17
2023-04-02T18:36:33.920Z,1.98
2023-04-02T18:38:53.860Z,1.65
2023-04-02T18:41:02.731Z,1.95
2023-04-02T18:43:19.532Z,2.00
2023-04-02T18:45:31.254Z,1.50
2023-04-02T18:47:51.796Z,1.95
2023-04-02T18:50:11.206Z,1.67
2023-04-02T18:52:15.392Z,2.08
2023-04-02T18:54:27.313Z,3.20
2023-04-02T18:56:31.585Z,2.70
2023-04-02T18:58:52.826Z,2.55
2023-04-02T19:03:02.936Z,2.50
2023-04-02T19:05:15.042Z,2.03
2023-04-02T19:07:20.003Z,2.50
2023-04-02T19:09:32.625Z,2.08
2023-04-02T19:11:34.448Z,2.75
2023-04-02T19:13:36.255Z,2.08
2023-04-02T19:15:54.444Z,1.73
2023-04-02T19:18:05.470Z,1.90
2023-04-02T19:20:13.253Z,2.72
2023-04-02T19:22:29.994Z,2.38
2023-04-02T19:24:41.328Z,2.28
2023-04-02T19:27:12.456Z,2.00
2023-04-02T19:29:22.921Z,2.22
2023-04-02T19:31:39.503Z,1.92
2023-04-02T19:33:55.265Z,2.15
2023-04-02T19:36:14.108Z,1.65
2023-04-02T19:38:53.186Z,1.60
2023-04-02T19:41:08.274Z,2.13
2023-04-02T19:43:11.226Z,1.90
2023-04-02T19:45:21.168Z,1.40
2023-04-02T19:47:24.478Z,1.98
2023-04-02T19:49:34.714Z,1.80
2023-04-02T19:51:36.496Z,1.60
2023-04-02T19:53:38.306Z,2.00
2023-04-02T19:55:41.719Z,1.50
2023-04-02T19:57:43.403Z,1.83
2023-04-02T19:59:45.113Z,1.40
2023-04-02T20:01:47.197Z,1.65
2023-04-02T20:03:48.945Z,1.65
2023-04-02T20:05:51.048Z,1.60
2023-04-02T20:07:52.692Z,1.30
2023-04-02T20:09:54.429Z,1.67
2023-04-02T20:11:56.175Z,1.50
2023-04-02T20:13:57.895Z,1.42
2023-04-02T20:16:04.038Z,1.55
2023-04-02T20:18:06.019Z,1.60
2023-04-02T20:20:08.909Z,1.48
2023-04-02T20:22:10.613Z,1.30
2023-04-02T20:24:12.332Z,1.58
2023-04-02T20:26:13.952Z,1.45
2023-04-02T20:28:15.705Z,1.45
2023-04-02T20:30:17.612Z,1.50
2023-04-02T20:32:19.272Z,1.38
2023-04-02T20:34:21.158Z,1.55
2023-04-02T20:36:24.665Z,1.52
2023-04-02T20:38:27.448Z,1.63
2023-04-02T20:40:29.110Z,1.40
2023-04-02T20:42:31.179Z,1.30
2023-04-02T20:44:32.878Z,1.20
2023-04-02T20:46:34.599Z,1.52
2023-04-02T20:48:37.513Z,1.30
2023-04-02T20:50:39.291Z,1.20
2023-04-02T20:52:41.235Z,1.33
2023-04-02T20:54:42.857Z,1.50
2023-04-02T20:56:44.748Z,1.30
2023-04-02T20:58:46.619Z,1.23
2023-04-02T21:00:48.222Z,1.50
2023-04-02T21:02:49.940Z,1.45
2023-04-02T21:04:51.676Z,1.38
2023-04-02T21:06:56.855Z,1.60
2023-04-02T21:08:58.802Z,1.05
2023-04-02T21:11:06.968Z,1.27
2023-04-02T21:13:08.643Z,1.25
2023-04-02T21:15:12.627Z,1.40
2023-04-02T21:17:16.030Z,1.48
2023-04-02T21:19:17.738Z,1.30
2023-04-02T21:21:20.916Z,0.90
2023-04-02T21:23:22.585Z,1.20
2023-04-02T21:25:24.209Z,0.90
2023-04-02T21:27:26.084Z,1.30
2023-04-02T21:29:27.775Z,1.10
2023-04-02T21:31:32.946Z,1.00
2023-04-02T21:33:39.879Z,1.20
2023-04-02T21:35:41.828Z,1.45
2023-04-02T21:37:44.309Z,1.40
2023-04-02T21:39:47.100Z,1.20
2023-04-02T21:41:50.889Z,1.20
2023-04-02T21:43:53.859Z,1.15
2023-04-02T21:45:58.839Z,1.05
2023-04-02T21:48:00.689Z,1.10
2023-04-02T21:50:02.441Z,0.98
2023-04-02T21:52:04.144Z,0.90
2023-04-02T21:54:06.418Z,1.02
2023-04-02T21:56:12.865Z,1.10
2023-04-02T21:58:14.620Z,0.88
2023-04-02T22:00:16.546Z,1.00
2023-04-02T22:02:18.138Z,1.10
2023-04-02T22:04:24.801Z,1.20
2023-04-02T22:06:28.596Z,1.05
2023-04-02T22:08:30.574Z,1.17
2023-04-02T22:10:32.233Z,1.30
2023-04-02T22:12:33.870Z,1.00
2023-04-02T22:14:35.490Z,1.05
2023-04-02T22:16:38.110Z,1.50
2023-04-02T22:18:40.808Z,0.93
2023-04-02T22:20:42.483Z,1.00
2023-04-02T22:22:44.214Z,1.00
2023-04-02T22:24:46.312Z,1.20
2023-04-02T22:26:48.438Z,1.17
2023-04-02T22:28:52.319Z,0.93
2023-04-02T22:30:55.013Z,1.23
2023-04-02T22:32:56.712Z,1.00
2023-04-02T22:34:58.358Z,1.00
2023-04-02T22:36:59.983Z,1.00
2023-04-02T22:39:05.344Z,1.25
2023-04-02T22:41:28.753Z,0.93
2023-04-02T22:43:30.491Z,1.20
2023-04-02T22:45:32.131Z,0.90
2023-04-02T22:47:33.837Z,1.10
2023-04-02T22:49:35.567Z,1.00
2023-04-02T22:51:37.222Z,1.05
2023-04-02T22:53:39.344Z,1.10
2023-04-02T22:55:40.969Z,1.23
2023-04-02T22:57:43.032Z,1.02
2023-04-02T22:59:44.657Z,0.90
2023-04-02T23:01:46.412Z,0.90
2023-04-02T23:03:49.036Z,1.00
2023-04-02T23:06:01.449Z,0.90
2023-04-02T23:08:04.102Z,1.20
2023-04-02T23:10:06.380Z,1.00
2023-04-02T23:12:08.070Z,1.05
2023-04-02T23:14:09.794Z,0.90
2023-04-02T23:16:13.471Z,1.02
2023-04-02T23:18:15.217Z,1.00
2023-04-02T23:20:16.840Z,0.80
2023-04-02T23:22:18.543Z,1.00
2023-04-02T23:24:20.261Z,1.08
2023-04-02T23:26:27.044Z,1.00
2023-04-02T23:28:28.713Z,1.00
2023-04-02T23:30:30.540Z,0.82
2023-04-02T23:32:32.187Z,0.90
2023-04-02T23:34:34.040Z,1.13
2023-04-02T23:36:35.957Z,1.30
2023-04-02T23:38:37.573Z,1.02
2023-04-02T23:40:39.181Z,0.90
2023-04-02T23:42:40.982Z,1.23
2023-04-02T23:44:42.639Z,1.10
2023-04-02T23:46:44.300Z,1.00
2023-04-02T23:48:46.718Z,0.90
2023-04-02T23:50:48.421Z,1.17
2023-04-02T23:52:50.206Z,1.20
2023-04-02T23:54:51.979Z,0.93
2023-04-02T23:56:53.655Z,1.00
2023-04-02T23:58:55.329Z,1.10
